createdAt,value
2022-08-21T00:02:58.260Z,18.40
2022-08-21T00:06:00.676Z,18.40
2022-08-21T00:08:39.267Z,18.30
2022-08-21T00:11:25.656Z,18.00
2022-08-21T00:14:01.836Z,17.90
2022-08-21T00:20:12.586Z,18.20
2022-08-21T00:23:05.867Z,18.10
2022-08-21T00:25:46.781Z,18.10
2022-08-21T00:28:40.526Z,18.20
2022-08-21T00:31:22.120Z,18.20
2022-08-21T00:34:03.309Z,18.10
2022-08-21T00:36:52.874Z,18.00
2022-08-21T00:39:42.362Z,18.10
2022-08-21T00:42:16.304Z,18.00
2022-08-21T00:45:22.394Z,18.00
2022-08-21T00:48:01.733Z,17.90
2022-08-21T00:51:18.451Z,18.00
2022-08-21T00:53:55.449Z,17.90
2022-08-21T00:56:37.293Z,17.80
2022-08-21T00:59:17.128Z,17.80
2022-08-21T01:01:44.307Z,17.90
2022-08-21T01:07:24.226Z,17.90
2022-08-21T01:12:59.661Z,17.90
2022-08-21T01:15:41.702Z,17.80
2022-08-21T01:21:40.471Z,17.90
2022-08-21T01:24:33.208Z,17.80
2022-08-21T01:27:11.990Z,17.80
2022-08-21T01:30:22.009Z,17.70
2022-08-21T01:32:59.822Z,17.60
2022-08-21T01:35:44.996Z,17.50
2022-08-21T01:38:35.395Z,17.50
2022-08-21T01:41:08.063Z,17.50
2022-08-21T01:43:51.260Z,17.40
2022-08-21T01:46:32.090Z,17.20
2022-08-21T01:49:32.644Z,17.00
2022-08-21T01:52:09.546Z,16.90
2022-08-21T01:57:40.072Z,17.00
2022-08-21T02:00:21.216Z,16.60
2022-08-21T02:03:03.313Z,16.40
2022-08-21T02:05:33.935Z,16.30
2022-08-21T02:08:06.124Z,16.60
2022-08-21T02:10:49.248Z,16.90
2022-08-21T02:13:28.989Z,16.60
2022-08-21T02:16:12.790Z,16.60
2022-08-21T02:18:58.685Z,16.90
2022-08-21T02:21:38.503Z,17.00
2022-08-21T02:24:24.739Z,17.00
2022-08-21T02:29:55.391Z,17.00
2022-08-21T02:32:28.183Z,16.80
2022-08-21T02:35:19.700Z,16.60
2022-08-21T02:38:19.375Z,16.60
2022-08-21T02:40:57.958Z,16.60
2022-08-21T02:43:33.274Z,16.60
2022-08-21T02:46:11.533Z,16.40
2022-08-21T02:51:38.603Z,16.20
2022-08-21T02:54:09.383Z,16.40
2022-08-21T02:57:00.081Z,16.50
2022-08-21T02:59:35.656Z,16.60
2022-08-21T03:02:11.323Z,16.60
2022-08-21T03:05:21.844Z,16.70
2022-08-21T03:10:50.223Z,16.60
2022-08-21T03:13:23.305Z,16.60
2022-08-21T03:15:50.929Z,16.70
2022-08-21T03:18:38.437Z,16.70
2022-08-21T03:21:23.933Z,16.70
2022-08-21T03:24:16.109Z,16.70
2022-08-21T03:26:58.232Z,16.60
2022-08-21T03:29:27.586Z,16.60
2022-08-21T03:32:14.238Z,16.60
2022-08-21T03:35:03.330Z,16.70
2022-08-21T03:37:46.637Z,16.70
2022-08-21T03:40:35.940Z,16.50
2022-08-21T03:43:09.043Z,16.50
2022-08-21T03:45:46.673Z,16.50
2022-08-21T03:48:24.960Z,16.50
2022-08-21T03:51:08.333Z,16.40
2022-08-21T03:56:38.683Z,16.30
2022-08-21T03:59:14.657Z,16.20
2022-08-21T04:02:14.630Z,16.20
2022-08-21T04:04:58.815Z,16.20
2022-08-21T04:07:33.607Z,16.10
2022-08-21T04:10:36.343Z,16.20
2022-08-21T04:13:33.953Z,16.10
2022-08-21T04:16:22.721Z,16.10
2022-08-21T04:18:53.837Z,16.00
2022-08-21T04:21:32.818Z,16.00
2022-08-21T04:24:16.397Z,16.00
2022-08-21T04:29:40.905Z,16.10
2022-08-21T04:32:45.528Z,16.10
2022-08-21T04:35:45.357Z,16.10
2022-08-21T04:38:37.614Z,16.00
2022-08-21T04:41:28.229Z,16.00
2022-08-21T04:44:16.750Z,16.20
2022-08-21T04:47:20.266Z,16.10
2022-08-21T04:50:11.994Z,16.10
2022-08-21T04:53:06.033Z,16.20
2022-08-21T04:59:22.756Z,16.00
2022-08-21T05:09:28.557Z,15.90
2022-08-21T05:12:28.966Z,15.90
2022-08-21T05:15:31.964Z,15.90
2022-08-21T05:18:23.841Z,15.90
2022-08-21T05:21:00.978Z,16.00
2022-08-21T05:23:33.083Z,16.00
2022-08-21T05:26:18.237Z,16.00
2022-08-21T05:34:39.268Z,16.00
2022-08-21T05:37:30.535Z,16.10
2022-08-21T05:40:23.476Z,16.10
2022-08-21T05:43:04.013Z,16.10
2022-08-21T05:45:57.722Z,16.20
2022-08-21T05:48:52.651Z,16.20
2022-08-21T05:51:48.157Z,16.30
2022-08-21T05:54:20.548Z,16.30
2022-08-21T05:57:13.846Z,16.40
2022-08-21T06:02:35.201Z,16.50
2022-08-21T06:05:36.900Z,16.60
2022-08-21T06:08:26.705Z,16.60
2022-08-21T06:11:28.954Z,16.80
2022-08-21T06:14:16.366Z,16.80
2022-08-21T06:17:08.103Z,16.80
2022-08-21T06:19:44.808Z,16.80
2022-08-21T06:22:28.900Z,16.70
2022-08-21T06:25:08.175Z,16.80
2022-08-21T06:28:02.469Z,16.80
2022-08-21T06:30:55.096Z,16.70
2022-08-21T06:33:32.804Z,16.80
2022-08-21T06:36:42.196Z,16.90
2022-08-21T06:39:24.943Z,17.00
2022-08-21T06:42:20.243Z,17.10
2022-08-21T06:45:02.033Z,17.10
2022-08-21T06:47:47.771Z,17.20
2022-08-21T06:53:59.523Z,17.30
2022-08-21T06:56:38.517Z,17.30
2022-08-21T07:02:20.973Z,17.40
2022-08-21T07:05:18.802Z,17.50
2022-08-21T07:14:36.543Z,17.70
2022-08-21T07:17:12.127Z,17.70
2022-08-21T07:19:48.968Z,17.80
2022-08-21T07:22:35.595Z,17.90
2022-08-21T07:28:43.681Z,17.90
2022-08-21T07:31:43.170Z,18.00
2022-08-21T07:34:47.224Z,18.10
2022-08-21T07:37:47.222Z,18.10
2022-08-21T07:41:10.907Z,18.30
2022-08-21T07:43:52.857Z,18.30
2022-08-21T07:46:50.718Z,18.20
2022-08-21T07:49:47.272Z,18.30
2022-08-21T07:53:05.967Z,18.50
2022-08-21T07:59:50.872Z,18.60
2022-08-21T08:03:00.803Z,18.70
2022-08-21T08:06:27.763Z,18.80
2022-08-21T08:13:06.807Z,18.80
2022-08-21T08:19:36.980Z,19.00
2022-08-21T08:49:09.378Z,20.30
2022-08-21T09:33:02.967Z,21.50
2022-08-21T09:48:11.974Z,22.60
2022-08-21T10:03:12.985Z,22.40
2022-08-21T12:20:39.544Z,27.40
2022-08-21T12:23:24.968Z,27.10
2022-08-21T12:26:22.646Z,26.10
2022-08-21T12:28:49.862Z,26.80
2022-08-21T12:31:25.638Z,27.70
2022-08-21T12:33:57.589Z,28.20
2022-08-21T12:36:33.877Z,28.30
2022-08-21T12:39:12.185Z,28.40
2022-08-21T12:42:01.645Z,28.20
2022-08-21T12:44:33.487Z,28.10
2022-08-21T12:47:30.623Z,27.30
2022-08-21T12:50:13.983Z,27.70
2022-08-21T12:53:20.435Z,27.90
2022-08-21T12:55:48.151Z,27.30
2022-08-21T12:58:24.461Z,27.70
2022-08-21T13:00:58.988Z,28.50
2022-08-21T13:03:25.945Z,28.60
2022-08-21T13:05:54.613Z,28.80
2022-08-21T13:08:24.324Z,28.90
2022-08-21T13:11:00.235Z,28.80
2022-08-21T13:13:47.061Z,28.80
2022-08-21T13:16:24.029Z,29.20
2022-08-21T13:18:58.810Z,27.40
2022-08-21T13:21:31.871Z,28.00
2022-08-21T13:24:40.631Z,28.80
2022-08-21T13:27:03.251Z,29.30
2022-08-21T13:29:32.953Z,29.30
2022-08-21T13:32:05.839Z,29.50
2022-08-21T13:34:38.023Z,29.70
2022-08-21T13:37:07.965Z,30.00
2022-08-21T13:39:35.001Z,30.20
2022-08-21T13:42:07.166Z,30.10
2022-08-21T13:44:36.828Z,29.90
2022-08-21T13:47:06.117Z,29.80
2022-08-21T13:49:36.799Z,29.70
2022-08-21T13:52:04.677Z,29.90
2022-08-21T13:54:38.123Z,29.60
2022-08-21T13:57:05.323Z,29.20
2022-08-21T13:59:34.572Z,29.90
2022-08-21T14:02:18.625Z,30.20
2022-08-21T14:04:57.589Z,30.40
2022-08-21T14:07:33.977Z,30.60
2022-08-21T14:10:17.264Z,30.70
2022-08-21T14:12:47.303Z,30.60
2022-08-21T14:15:16.518Z,30.30
2022-08-21T14:17:43.764Z,29.80
2022-08-21T14:20:27.710Z,28.60
2022-08-21T14:22:54.627Z,28.80
2022-08-21T14:25:25.423Z,30.20
2022-08-21T14:27:55.248Z,30.70
2022-08-21T14:30:29.860Z,30.50
2022-08-21T14:32:58.268Z,29.80
2022-08-21T14:35:25.309Z,30.20
2022-08-21T14:37:53.277Z,30.20
2022-08-21T14:40:21.992Z,29.90
2022-08-21T14:42:50.483Z,28.90
2022-08-21T14:45:24.737Z,29.50
2022-08-21T14:47:55.315Z,30.00
2022-08-21T14:50:22.462Z,29.50
2022-08-21T14:52:49.208Z,28.80
2022-08-21T14:55:19.052Z,29.50
2022-08-21T14:57:48.211Z,30.20
2022-08-21T15:00:18.984Z,30.50
2022-08-21T15:02:46.048Z,30.90
2022-08-21T15:05:14.143Z,30.70
2022-08-21T15:07:42.755Z,30.40
2022-08-21T15:10:09.899Z,31.00
2022-08-21T15:12:37.040Z,31.30
2022-08-21T15:15:06.683Z,30.50
2022-08-21T15:17:33.429Z,30.40
2022-08-21T15:20:00.337Z,30.70
2022-08-21T15:22:28.549Z,30.40
2022-08-21T15:24:55.354Z,30.20
2022-08-21T15:27:22.129Z,29.40
2022-08-21T15:29:49.246Z,28.80
2022-08-21T15:32:23.960Z,28.60
2022-08-21T15:34:52.315Z,28.40
2022-08-21T15:37:19.810Z,28.20
2022-08-21T15:39:52.230Z,28.60
2022-08-21T15:42:21.825Z,28.80
2022-08-21T15:44:49.106Z,28.40
2022-08-21T15:47:19.091Z,28.00
2022-08-21T15:49:46.432Z,28.10
2022-08-21T15:52:18.343Z,28.40
2022-08-21T15:54:45.599Z,28.20
2022-08-21T15:57:15.667Z,27.80
2022-08-21T15:59:45.414Z,27.80
2022-08-21T16:02:32.207Z,27.60
2022-08-21T16:04:59.771Z,27.70
2022-08-21T16:07:26.702Z,28.00
2022-08-21T16:09:53.785Z,28.10
2022-08-21T16:12:31.929Z,27.80
2022-08-21T16:15:00.586Z,27.70
2022-08-21T16:17:34.114Z,27.70
2022-08-21T16:20:04.299Z,27.40
2022-08-21T16:22:36.362Z,27.40
2022-08-21T16:25:11.809Z,27.60
2022-08-21T16:27:38.658Z,27.60
2022-08-21T16:30:08.695Z,27.70
2022-08-21T16:32:35.447Z,27.50
2022-08-21T16:35:04.321Z,27.40
2022-08-21T16:37:31.273Z,27.40
2022-08-21T16:39:58.070Z,27.30
2022-08-21T16:42:26.329Z,27.30
2022-08-21T16:44:54.890Z,27.20
2022-08-21T16:47:26.503Z,27.10
2022-08-21T16:49:54.425Z,27.20
2022-08-21T16:52:21.165Z,27.20
2022-08-21T16:54:47.820Z,27.20
2022-08-21T16:57:15.036Z,27.10
2022-08-21T16:59:42.092Z,27.10
2022-08-21T17:02:24.741Z,27.00
2022-08-21T17:04:51.979Z,26.90
2022-08-21T17:07:18.811Z,26.80
2022-08-21T17:09:45.661Z,26.70
2022-08-21T17:12:12.606Z,26.70
2022-08-21T17:14:39.396Z,26.60
2022-08-21T17:17:08.165Z,26.50
2022-08-21T17:19:35.233Z,26.40
2022-08-21T17:22:02.604Z,26.30
2022-08-21T17:24:29.511Z,26.20
2022-08-21T17:26:57.388Z,26.20
2022-08-21T17:29:31.035Z,26.20
2022-08-21T17:31:57.948Z,26.20
2022-08-21T17:34:28.878Z,26.00
2022-08-21T17:36:58.530Z,25.90
2022-08-21T17:39:26.496Z,25.80
2022-08-21T17:41:57.824Z,25.60
2022-08-21T17:44:25.428Z,25.50
2022-08-21T17:46:52.176Z,25.40
2022-08-21T17:49:18.896Z,25.30
2022-08-21T17:51:45.600Z,25.30
2022-08-21T17:54:12.378Z,25.20
2022-08-21T17:56:42.238Z,25.20
2022-08-21T17:59:10.527Z,25.10
2022-08-21T18:01:43.267Z,25.20
2022-08-21T18:04:11.396Z,25.10
2022-08-21T18:06:39.201Z,25.10
2022-08-21T18:09:09.256Z,25.00
2022-08-21T18:11:37.499Z,24.90
2022-08-21T18:14:07.802Z,24.80
2022-08-21T18:16:37.794Z,24.70
2022-08-21T18:19:08.863Z,24.50
2022-08-21T18:21:35.784Z,24.60
2022-08-21T18:24:02.611Z,24.50
2022-08-21T18:26:34.842Z,24.50
2022-08-21T18:29:02.389Z,24.40
2022-08-21T18:31:32.048Z,24.30
2022-08-21T18:34:02.687Z,24.20
2022-08-21T18:36:29.812Z,24.00
2022-08-21T18:39:13.534Z,23.90
2022-08-21T18:41:45.046Z,23.70
2022-08-21T18:44:13.927Z,23.60
2022-08-21T18:46:49.713Z,23.60
2022-08-21T18:49:16.737Z,23.60
2022-08-21T18:51:45.387Z,23.50
2022-08-21T18:54:12.947Z,23.30
2022-08-21T18:56:40.909Z,23.10
2022-08-21T18:59:08.189Z,23.10
2022-08-21T19:01:35.639Z,22.90
2022-08-21T19:04:02.905Z,22.80
2022-08-21T19:06:29.676Z,22.80
2022-08-21T19:08:56.748Z,22.80
2022-08-21T19:11:25.837Z,22.60
2022-08-21T19:13:54.007Z,22.60
2022-08-21T19:16:22.207Z,22.50
2022-08-21T19:18:49.063Z,22.40
2022-08-21T19:21:16.429Z,22.40
2022-08-21T19:23:48.104Z,22.30
2022-08-21T19:26:21.968Z,22.20
2022-08-21T19:28:52.594Z,22.10
2022-08-21T19:31:29.614Z,22.10
2022-08-21T19:34:15.687Z,21.90
2022-08-21T19:36:43.155Z,22.20
2022-08-21T19:39:11.340Z,22.20
2022-08-21T19:41:42.490Z,22.20
2022-08-21T19:44:15.013Z,22.30
2022-08-21T19:46:43.940Z,22.30
2022-08-21T19:49:17.272Z,22.30
2022-08-21T19:51:46.559Z,22.20
2022-08-21T19:54:22.605Z,22.00
2022-08-21T19:56:50.057Z,22.00
2022-08-21T19:59:18.567Z,21.90
2022-08-21T20:01:52.252Z,21.60
2022-08-21T20:04:19.688Z,21.60
2022-08-21T20:06:47.381Z,21.50
2022-08-21T20:09:17.113Z,21.60
2022-08-21T20:11:49.302Z,21.60
2022-08-21T20:14:19.217Z,21.50
2022-08-21T20:16:48.534Z,21.50
2022-08-21T20:19:19.647Z,21.60
2022-08-21T20:21:46.722Z,21.60
2022-08-21T20:24:15.400Z,21.50
2022-08-21T20:26:49.369Z,21.40
2022-08-21T20:29:23.854Z,21.20
2022-08-21T20:31:52.732Z,21.30
2022-08-21T20:34:19.483Z,21.40
2022-08-21T20:36:47.438Z,21.50
2022-08-21T20:39:14.523Z,21.40
2022-08-21T20:41:41.654Z,21.40
2022-08-21T20:44:12.663Z,21.50
2022-08-21T20:46:39.885Z,21.50
2022-08-21T20:49:09.169Z,21.20
2022-08-21T20:51:45.854Z,21.10
2022-08-21T20:54:44.496Z,21.00
2022-08-21T20:57:52.685Z,21.00
2022-08-21T21:00:22.806Z,21.10
2022-08-21T21:03:33.009Z,21.20
2022-08-21T21:06:03.879Z,21.30
2022-08-21T21:08:55.336Z,21.40
2022-08-21T21:11:32.009Z,21.50
2022-08-21T21:14:10.149Z,21.50
2022-08-21T21:16:50.934Z,21.10
2022-08-21T21:19:43.200Z,21.00
2022-08-21T21:22:17.644Z,21.30
2022-08-21T21:24:44.273Z,21.60
2022-08-21T21:27:23.207Z,21.50
2022-08-21T21:30:17.550Z,21.50
2022-08-21T21:32:48.414Z,21.50
2022-08-21T21:35:17.459Z,21.50
2022-08-21T21:38:06.380Z,21.40
2022-08-21T21:41:01.234Z,21.40
2022-08-21T21:43:56.210Z,21.40
2022-08-21T21:46:48.453Z,21.20
2022-08-21T21:49:34.057Z,21.10
2022-08-21T21:52:16.398Z,20.90
2022-08-21T21:54:54.301Z,21.20
2022-08-21T21:58:03.624Z,21.20
2022-08-21T22:00:33.564Z,21.10
2022-08-21T22:03:18.226Z,21.20
2022-08-21T22:06:00.365Z,21.30
2022-08-21T22:08:33.466Z,21.20
2022-08-21T22:11:38.532Z,21.00
2022-08-21T22:14:15.245Z,21.00
2022-08-21T22:16:45.374Z,21.00
2022-08-21T22:19:24.681Z,21.00
2022-08-21T22:22:01.229Z,21.20
2022-08-21T22:24:33.712Z,20.80
2022-08-21T22:27:05.684Z,20.50
2022-08-21T22:30:07.625Z,20.70
2022-08-21T22:32:49.184Z,20.30
2022-08-21T22:35:26.143Z,20.50
2022-08-21T22:37:55.815Z,20.50
2022-08-21T22:40:35.565Z,20.20
2022-08-21T22:43:09.338Z,20.60
2022-08-21T22:45:54.731Z,20.40
2022-08-21T22:48:23.100Z,20.60
2022-08-21T22:51:09.982Z,20.70
2022-08-21T22:53:42.013Z,20.60
2022-08-21T22:56:10.605Z,20.70
2022-08-21T22:58:52.555Z,20.90
2022-08-21T23:01:21.963Z,21.00
2022-08-21T23:03:54.685Z,21.10
2022-08-21T23:06:46.371Z,21.10
2022-08-21T23:09:47.598Z,21.00
2022-08-21T23:12:33.963Z,21.00
2022-08-21T23:15:11.376Z,21.00
2022-08-21T23:18:12.269Z,20.90
2022-08-21T23:23:52.481Z,20.90
2022-08-21T23:26:22.906Z,20.90
2022-08-21T23:29:04.864Z,20.80
2022-08-21T23:32:09.387Z,20.80
2022-08-21T23:35:08.145Z,20.70
2022-08-21T23:37:53.791Z,20.70
2022-08-21T23:40:51.255Z,20.70
2022-08-21T23:43:25.118Z,20.70
2022-08-21T23:46:08.666Z,20.70
2022-08-21T23:48:47.043Z,20.90
2022-08-21T23:51:24.330Z,20.90
2022-08-21T23:54:09.901Z,20.90
2022-08-21T23:57:14.792Z,20.90
